createdAt,value
2023-01-05T00:01:53.739Z,97947.00
2023-01-05T00:04:20.336Z,97949.19
2023-01-05T00:06:46.859Z,97936.59
2023-01-05T00:09:15.651Z,97934.06
2023-01-05T00:12:00.980Z,97931.91
2023-01-05T00:14:47.914Z,97932.66
2023-01-05T00:17:34.493Z,97933.00
2023-01-05T00:20:19.921Z,97923.13
2023-01-05T00:22:47.628Z,97929.16
2023-01-05T00:25:24.455Z,97917.84
2023-01-05T00:27:52.133Z,97919.50
2023-01-05T00:30:20.090Z,97911.03
2023-01-05T00:32:47.043Z,97905.06
2023-01-05T00:35:14.352Z,97910.63
2023-01-05T00:37:40.861Z,97911.06
2023-01-05T00:40:11.308Z,97910.50
2023-01-05T00:42:37.965Z,97898.53
2023-01-05T00:45:08.319Z,97906.41
2023-01-05T00:47:34.896Z,97898.03
2023-01-05T00:50:01.473Z,97891.28
2023-01-05T00:52:27.938Z,97897.63
2023-01-05T00:54:54.407Z,97903.78
2023-01-05T00:57:20.894Z,97909.28
2023-01-05T00:59:47.524Z,97906.19
2023-01-05T01:02:14.610Z,97907.66
2023-01-05T01:04:41.142Z,97912.94
2023-01-05T01:07:07.639Z,97900.44
2023-01-05T01:09:34.275Z,97910.53
2023-01-05T01:12:01.283Z,97919.72
2023-01-05T01:14:27.826Z,97929.44
2023-01-05T01:16:54.343Z,97930.09
2023-01-05T01:19:24.972Z,97921.66
2023-01-05T01:21:51.786Z,97910.19
2023-01-05T01:24:25.773Z,97903.44
2023-01-05T01:26:52.878Z,97910.75
2023-01-05T01:29:19.694Z,97906.59
2023-01-05T01:31:49.664Z,97904.16
2023-01-05T01:34:16.485Z,97901.72
2023-01-05T01:36:43.112Z,97898.00
2023-01-05T01:39:11.014Z,97899.84
2023-01-05T01:41:39.772Z,97895.19
2023-01-05T01:44:25.833Z,97883.69
2023-01-05T01:46:52.491Z,97877.78
2023-01-05T01:49:19.037Z,97867.66
2023-01-05T01:51:47.967Z,97860.75
2023-01-05T01:54:17.963Z,97867.06
2023-01-05T01:57:03.502Z,97855.88
2023-01-05T01:59:30.275Z,97853.69
2023-01-05T02:02:00.415Z,97842.28
2023-01-05T02:04:29.562Z,97820.13
2023-01-05T02:06:56.183Z,97819.63
2023-01-05T02:09:22.745Z,97819.22
2023-01-05T02:12:06.913Z,97820.34
2023-01-05T02:15:08.907Z,97823.09
2023-01-05T02:17:38.431Z,97822.53
2023-01-05T02:20:14.083Z,97807.25
2023-01-05T02:22:50.314Z,97801.44
2023-01-05T02:25:38.906Z,97808.63
2023-01-05T02:28:05.687Z,97806.44
2023-01-05T02:30:51.200Z,97800.91
2023-01-05T02:33:27.667Z,97806.44
2023-01-05T02:36:03.099Z,97804.53
2023-01-05T02:38:29.564Z,97805.75
2023-01-05T02:40:58.747Z,97801.97
2023-01-05T02:43:27.134Z,97791.09
2023-01-05T02:45:53.850Z,97803.91
2023-01-05T02:48:20.436Z,97796.59
2023-01-05T02:50:53.751Z,97791.75
2023-01-05T02:53:29.376Z,97786.72
2023-01-05T02:56:02.055Z,97781.09
2023-01-05T02:58:59.828Z,97778.75
2023-01-05T03:01:30.925Z,97786.34
2023-01-05T03:04:03.982Z,97782.03
2023-01-05T03:06:36.199Z,97760.94
2023-01-05T03:09:05.042Z,97774.03
2023-01-05T03:11:56.427Z,97760.50
2023-01-05T03:14:28.890Z,97757.53
2023-01-05T03:16:57.331Z,97773.97
2023-01-05T03:19:39.606Z,97773.09
2023-01-05T03:22:34.455Z,97766.25
2023-01-05T03:25:22.230Z,97755.94
2023-01-05T03:28:08.039Z,97762.06
2023-01-05T03:30:57.885Z,97764.41
2023-01-05T03:34:03.956Z,97771.81
2023-01-05T03:36:32.914Z,97770.72
2023-01-05T03:39:01.665Z,97759.78
2023-01-05T03:41:30.130Z,97755.31
2023-01-05T03:43:57.896Z,97753.38
2023-01-05T03:46:24.569Z,97769.66
2023-01-05T03:48:52.475Z,97750.44
2023-01-05T03:51:20.213Z,97739.88
2023-01-05T03:53:47.104Z,97745.75
2023-01-05T03:56:13.616Z,97741.38
2023-01-05T03:58:40.395Z,97724.81
2023-01-05T04:01:08.479Z,97728.09
2023-01-05T04:03:35.263Z,97723.47
2023-01-05T04:06:05.418Z,97726.06
2023-01-05T04:08:33.896Z,97721.38
2023-01-05T04:11:12.236Z,97723.69
2023-01-05T04:13:38.803Z,97714.13
2023-01-05T04:16:07.099Z,97711.44
2023-01-05T04:18:35.808Z,97725.59
2023-01-05T04:21:03.277Z,97717.56
2023-01-05T04:23:30.169Z,97702.31
2023-01-05T04:25:56.710Z,97698.63
2023-01-05T04:28:24.156Z,97694.63
2023-01-05T04:30:54.531Z,97702.22
2023-01-05T04:33:22.743Z,97695.09
2023-01-05T04:35:49.401Z,97691.44
2023-01-05T04:38:16.049Z,97704.19
2023-01-05T04:40:47.683Z,97710.16
2023-01-05T04:43:14.135Z,97703.88
2023-01-05T04:45:40.940Z,97706.63
2023-01-05T04:48:07.729Z,97707.47
2023-01-05T04:50:34.374Z,97706.44
2023-01-05T04:53:01.635Z,97686.94
2023-01-05T04:55:29.582Z,97677.09
2023-01-05T04:57:56.073Z,97688.41
2023-01-05T05:00:23.725Z,97683.88
2023-01-05T05:02:51.320Z,97678.13
2023-01-05T05:05:18.583Z,97673.16
2023-01-05T05:07:49.285Z,97672.31
2023-01-05T05:10:17.971Z,97674.00
2023-01-05T05:12:45.251Z,97675.13
2023-01-05T05:15:12.828Z,97681.81
2023-01-05T05:17:44.238Z,97704.16
2023-01-05T05:20:13.010Z,97676.88
2023-01-05T05:22:39.459Z,97692.72
2023-01-05T05:25:06.611Z,97687.41
2023-01-05T05:27:33.071Z,97684.22
2023-01-05T05:29:59.517Z,97688.50
2023-01-05T05:32:26.022Z,97680.84
2023-01-05T05:34:52.490Z,97681.41
2023-01-05T05:37:19.048Z,97686.19
2023-01-05T05:39:45.509Z,97669.00
2023-01-05T05:42:12.170Z,97668.63
2023-01-05T05:44:39.006Z,97668.19
2023-01-05T05:47:05.550Z,97659.03
2023-01-05T05:49:32.055Z,97661.81
2023-01-05T05:51:58.474Z,97659.16
2023-01-05T05:54:24.972Z,97660.66
2023-01-05T05:56:51.372Z,97663.97
2023-01-05T05:59:17.856Z,97660.56
2023-01-05T06:01:46.162Z,97670.53
2023-01-05T06:04:12.682Z,97649.84
2023-01-05T06:06:39.842Z,97646.75
2023-01-05T06:09:06.512Z,97646.59
2023-01-05T06:11:33.092Z,97635.22
2023-01-05T06:13:59.587Z,97633.41
2023-01-05T06:16:26.174Z,97637.88
2023-01-05T06:18:52.619Z,97628.34
2023-01-05T06:21:21.356Z,97645.66
2023-01-05T06:23:48.013Z,97643.50
2023-01-05T06:26:14.487Z,97640.72
2023-01-05T06:28:40.920Z,97653.31
2023-01-05T06:31:07.386Z,97644.25
2023-01-05T06:33:33.912Z,97650.41
2023-01-05T06:36:00.349Z,97649.03
2023-01-05T06:38:27.321Z,97655.72
2023-01-05T06:40:54.659Z,97656.84
2023-01-05T06:43:21.415Z,97653.16
2023-01-05T06:45:47.974Z,97650.63
2023-01-05T06:48:14.561Z,97644.59
2023-01-05T06:50:41.061Z,97637.31
2023-01-05T06:53:07.853Z,97627.09
2023-01-05T06:55:34.344Z,97625.69
2023-01-05T06:58:01.559Z,97636.47
2023-01-05T07:00:28.548Z,97636.09
2023-01-05T07:02:55.137Z,97630.31
2023-01-05T07:05:23.250Z,97638.72
2023-01-05T07:07:50.089Z,97640.19
2023-01-05T07:10:16.708Z,97628.63
2023-01-05T07:12:43.142Z,97617.59
2023-01-05T07:15:09.833Z,97615.59
2023-01-05T07:17:36.648Z,97622.84
2023-01-05T07:20:03.981Z,97618.84
2023-01-05T07:22:30.932Z,97617.59
2023-01-05T07:24:58.429Z,97618.69
2023-01-05T07:27:24.977Z,97619.44
2023-01-05T07:29:51.708Z,97631.06
2023-01-05T07:32:18.199Z,97630.84
2023-01-05T07:34:51.215Z,97637.91
2023-01-05T07:37:21.180Z,97633.44
2023-01-05T07:39:47.820Z,97639.63
2023-01-05T07:42:14.249Z,97642.44
2023-01-05T07:44:41.487Z,97639.63
2023-01-05T07:47:07.927Z,97650.31
2023-01-05T07:49:34.443Z,97652.97
2023-01-05T07:52:00.904Z,97638.91
2023-01-05T07:54:27.614Z,97637.16
2023-01-05T07:56:54.141Z,97637.78
2023-01-05T07:59:20.612Z,97648.34
2023-01-05T08:01:47.524Z,97644.00
2023-01-05T08:04:14.118Z,97637.41
2023-01-05T08:06:40.623Z,97655.84
2023-01-05T08:09:39.364Z,97649.31
2023-01-05T08:12:06.011Z,97642.34
2023-01-05T08:14:32.502Z,97634.47
2023-01-05T08:16:59.010Z,97644.50
2023-01-05T08:19:25.571Z,97640.91
2023-01-05T08:21:52.076Z,97650.19
2023-01-05T08:24:18.587Z,97642.16
2023-01-05T08:26:45.092Z,97640.41
2023-01-05T08:29:11.528Z,97636.31
2023-01-05T08:31:39.366Z,97637.38
2023-01-05T08:34:06.273Z,97640.47
2023-01-05T08:36:33.338Z,97645.81
2023-01-05T08:39:01.537Z,97640.19
2023-01-05T08:41:30.658Z,97644.28
2023-01-05T08:43:58.785Z,97642.63
2023-01-05T08:46:26.266Z,97647.06
2023-01-05T08:48:53.886Z,97642.19
2023-01-05T08:51:20.671Z,97644.94
2023-01-05T08:53:47.763Z,97643.59
2023-01-05T08:56:14.468Z,97638.66
2023-01-05T08:58:41.609Z,97646.69
2023-01-05T09:01:08.811Z,97651.72
2023-01-05T09:03:35.521Z,97649.84
2023-01-05T09:06:03.437Z,97649.53
2023-01-05T09:08:31.006Z,97652.06
2023-01-05T09:11:18.223Z,97640.22
2023-01-05T09:13:52.260Z,97643.41
2023-01-05T09:16:35.504Z,97653.50
2023-01-05T09:19:06.774Z,97651.06
2023-01-05T09:21:33.605Z,97657.59
2023-01-05T09:24:00.193Z,97658.00
2023-01-05T09:26:26.640Z,97645.69
2023-01-05T09:28:53.307Z,97654.75
2023-01-05T09:31:20.948Z,97655.22
2023-01-05T09:33:47.840Z,97659.94
2023-01-05T09:36:15.400Z,97657.69
2023-01-05T09:38:46.849Z,97668.69
2023-01-05T09:41:21.130Z,97652.06
2023-01-05T09:43:49.022Z,97659.53
2023-01-05T09:46:18.166Z,97653.16
2023-01-05T09:48:47.059Z,97652.06
2023-01-05T09:51:13.786Z,97647.16
2023-01-05T09:53:40.846Z,97647.47
2023-01-05T09:56:13.744Z,97649.91
2023-01-05T09:58:42.738Z,97642.06
2023-01-05T10:01:14.460Z,97648.50
2023-01-05T10:04:03.585Z,97639.91
2023-01-05T10:06:34.604Z,97639.47
2023-01-05T10:09:02.332Z,97643.59
2023-01-05T10:12:05.819Z,97641.88
2023-01-05T10:14:37.830Z,97634.13
2023-01-05T10:17:39.791Z,97639.47
2023-01-05T10:19:55.103Z,97621.13
2023-01-05T10:22:27.648Z,97615.06
2023-01-05T10:24:57.017Z,97616.97
2023-01-05T10:27:25.112Z,97606.56
2023-01-05T10:29:57.469Z,97612.72
2023-01-05T10:32:49.075Z,97592.47
2023-01-05T10:38:20.945Z,97584.16
2023-01-05T10:40:47.462Z,97600.59
2023-01-05T10:43:32.614Z,97592.66
2023-01-05T10:46:29.903Z,97598.84
2023-01-05T10:48:45.564Z,97604.97
2023-01-05T10:51:12.036Z,97604.13
2023-01-05T10:53:40.323Z,97608.31
2023-01-05T10:56:12.897Z,97599.19
2023-01-05T10:58:43.858Z,97591.72
2023-01-05T11:01:25.066Z,97562.03
2023-01-05T11:06:42.868Z,97568.44
2023-01-05T11:09:15.234Z,97568.09
2023-01-05T11:11:53.302Z,97564.94
2023-01-05T11:14:20.761Z,97554.63
2023-01-05T11:16:48.755Z,97555.63
2023-01-05T11:19:21.331Z,97552.75
2023-01-05T11:21:47.833Z,97560.69
2023-01-05T11:24:23.241Z,97555.41
2023-01-05T11:26:58.847Z,97562.03
2023-01-05T11:29:25.763Z,97555.13
2023-01-05T11:31:54.860Z,97553.59
2023-01-05T11:34:38.129Z,97565.44
2023-01-05T11:37:08.552Z,97561.56
2023-01-05T11:39:35.247Z,97545.50
2023-01-05T11:42:07.737Z,97563.88
2023-01-05T11:44:34.694Z,97557.31
2023-01-05T11:47:01.372Z,97559.16
2023-01-05T11:49:28.011Z,97554.28
2023-01-05T11:51:54.481Z,97542.34
2023-01-05T11:54:33.992Z,97552.81
2023-01-05T11:57:12.782Z,97538.22
2023-01-05T11:59:39.290Z,97530.75
2023-01-05T12:02:11.466Z,97526.97
2023-01-05T12:05:04.426Z,97526.91
2023-01-05T12:07:30.998Z,97522.06
2023-01-05T12:10:12.874Z,97523.34
2023-01-05T12:12:39.427Z,97517.91
2023-01-05T12:15:05.931Z,97526.50
2023-01-05T12:17:38.462Z,97518.66
2023-01-05T12:20:25.169Z,97522.34
2023-01-05T12:23:03.931Z,97526.63
2023-01-05T12:25:42.636Z,97516.28
2023-01-05T12:28:35.675Z,97522.72
2023-01-05T12:34:18.940Z,97515.97
2023-01-05T12:36:48.415Z,97517.69
2023-01-05T12:39:33.185Z,97506.06
2023-01-05T12:42:06.736Z,97517.38
2023-01-05T12:44:33.230Z,97517.69
2023-01-05T12:47:11.964Z,97503.00
2023-01-05T12:49:42.787Z,97503.53
2023-01-05T12:52:13.565Z,97511.69
2023-01-05T12:54:49.801Z,97511.94
2023-01-05T12:57:29.520Z,97507.41
2023-01-05T12:59:59.140Z,97516.72
2023-01-05T13:02:35.455Z,97506.06
2023-01-05T13:05:10.099Z,97503.75
2023-01-05T13:07:55.519Z,97503.25
2023-01-05T13:10:45.258Z,97500.56
2023-01-05T13:13:13.779Z,97504.59
2023-01-05T13:15:41.955Z,97505.88
2023-01-05T13:18:14.064Z,97488.56
2023-01-05T13:20:46.306Z,97495.50
2023-01-05T13:23:19.339Z,97500.59
2023-01-05T13:25:50.510Z,97500.75
2023-01-05T13:28:18.438Z,97498.16
2023-01-05T13:30:53.093Z,97494.06
2023-01-05T13:33:25.385Z,97499.31
2023-01-05T13:36:01.340Z,97499.88
2023-01-05T13:38:27.772Z,97501.06
2023-01-05T13:41:03.593Z,97506.78
2023-01-05T13:43:47.837Z,97510.56
2023-01-05T13:46:20.967Z,97499.94
2023-01-05T13:49:05.824Z,97506.94
2023-01-05T13:51:38.423Z,97514.63
2023-01-05T13:54:13.105Z,97516.25
2023-01-05T13:56:40.441Z,97523.41
2023-01-05T13:59:24.404Z,97526.78
2023-01-05T14:02:01.093Z,97521.59
2023-01-05T14:04:31.628Z,97529.47
2023-01-05T14:07:02.242Z,97541.09
2023-01-05T14:09:30.755Z,97542.28
2023-01-05T14:12:10.099Z,97552.16
2023-01-05T14:14:58.854Z,97556.97
2023-01-05T14:17:45.639Z,97560.03
2023-01-05T14:20:30.682Z,97578.41
2023-01-05T14:22:57.703Z,97586.75
2023-01-05T14:25:36.131Z,97575.81
2023-01-05T14:28:19.866Z,97583.06
2023-01-05T14:30:47.055Z,97586.66
2023-01-05T14:33:13.627Z,97584.59
2023-01-05T14:35:40.140Z,97606.97
2023-01-05T14:38:18.776Z,97602.94
2023-01-05T14:40:48.845Z,97613.09
2023-01-05T14:43:21.655Z,97616.13
2023-01-05T14:46:02.715Z,97612.75
2023-01-05T14:48:32.205Z,97621.22
2023-01-05T14:51:17.037Z,97625.94
2023-01-05T14:53:45.776Z,97619.19
2023-01-05T14:56:26.053Z,97622.56
2023-01-05T14:58:55.841Z,97625.59
2023-01-05T15:01:28.300Z,97620.38
2023-01-05T15:04:00.908Z,97623.22
2023-01-05T15:06:46.121Z,97617.50
2023-01-05T15:09:24.939Z,97614.97
2023-01-05T15:12:01.724Z,97608.00
2023-01-05T15:14:51.485Z,97613.09
2023-01-05T15:17:27.059Z,97618.34
2023-01-05T15:20:03.667Z,97620.19
2023-01-05T15:22:38.229Z,97626.59
2023-01-05T15:25:31.543Z,97630.31
2023-01-05T15:27:57.987Z,97634.34
2023-01-05T15:30:34.666Z,97640.44
2023-01-05T15:33:09.305Z,97641.09
2023-01-05T15:35:43.476Z,97637.22
2023-01-05T15:38:20.156Z,97649.19
2023-01-05T15:40:47.455Z,97642.94
2023-01-05T15:43:15.778Z,97658.66
2023-01-05T15:45:43.453Z,97659.31
2023-01-05T15:48:15.242Z,97660.31
2023-01-05T15:50:46.030Z,97651.25
2023-01-05T15:53:44.208Z,97662.59
2023-01-05T15:56:30.151Z,97662.25
2023-01-05T15:58:56.797Z,97655.81
2023-01-05T16:01:23.358Z,97648.41
2023-01-05T16:03:50.517Z,97647.75
2023-01-05T16:06:25.043Z,97649.41
2023-01-05T16:08:52.529Z,97653.59
2023-01-05T16:11:31.234Z,97655.31
2023-01-05T16:14:00.452Z,97661.97
2023-01-05T16:16:51.157Z,97670.69
2023-01-05T16:19:22.814Z,97670.34
2023-01-05T16:21:54.991Z,97666.69
2023-01-05T16:24:33.750Z,97667.22
2023-01-05T16:27:02.287Z,97675.06
2023-01-05T16:29:38.002Z,97669.53
2023-01-05T16:32:05.185Z,97686.09
2023-01-05T16:34:33.119Z,97690.53
2023-01-05T16:36:59.565Z,97699.59
2023-01-05T16:39:26.479Z,97705.69
2023-01-05T16:42:21.854Z,97700.38
2023-01-05T16:44:52.525Z,97705.88
2023-01-05T16:47:30.635Z,97710.31
2023-01-05T16:49:58.538Z,97725.22
2023-01-05T16:52:28.977Z,97724.56
2023-01-05T16:55:20.035Z,97733.00
2023-01-05T16:57:50.080Z,97741.25
2023-01-05T17:00:22.614Z,97752.94
2023-01-05T17:02:49.358Z,97746.38
2023-01-05T17:05:17.708Z,97753.97
2023-01-05T17:07:45.207Z,97744.41
2023-01-05T17:10:23.236Z,97744.22
2023-01-05T17:12:58.967Z,97751.22
2023-01-05T17:15:26.499Z,97740.06
2023-01-05T17:17:55.283Z,97747.16
2023-01-05T17:20:23.254Z,97746.06
2023-01-05T17:22:50.564Z,97744.69
2023-01-05T17:25:17.221Z,97754.13
2023-01-05T17:27:44.072Z,97758.06
2023-01-05T17:30:19.242Z,97763.94
2023-01-05T17:32:45.975Z,97765.78
2023-01-05T17:35:12.793Z,97768.44
2023-01-05T17:37:39.390Z,97781.19
2023-01-05T17:40:06.917Z,97789.97
2023-01-05T17:42:42.652Z,97787.19
2023-01-05T17:45:27.601Z,97793.06
2023-01-05T17:47:54.380Z,97807.78
2023-01-05T17:50:22.753Z,97826.69
2023-01-05T17:52:49.229Z,97815.94
2023-01-05T17:55:15.996Z,97808.53
2023-01-05T17:57:42.494Z,97828.31
2023-01-05T18:00:11.134Z,97837.56
2023-01-05T18:02:37.714Z,97837.44
2023-01-05T18:05:04.412Z,97841.63
2023-01-05T18:07:31.913Z,97850.22
2023-01-05T18:09:58.665Z,97852.75
2023-01-05T18:12:25.747Z,97850.22
2023-01-05T18:14:52.739Z,97857.91
2023-01-05T18:17:19.630Z,97854.22
2023-01-05T18:19:46.577Z,97851.69
2023-01-05T18:22:13.381Z,97859.63
2023-01-05T18:24:39.978Z,97861.25
2023-01-05T18:27:07.135Z,97870.59
2023-01-05T18:29:34.054Z,97885.31
2023-01-05T18:32:01.008Z,97887.94
2023-01-05T18:34:27.622Z,97904.91
2023-01-05T18:37:01.585Z,97901.59
2023-01-05T18:39:32.946Z,97913.47
2023-01-05T18:41:59.531Z,97903.13
2023-01-05T18:44:26.055Z,97910.94
2023-01-05T18:46:52.551Z,97912.38
2023-01-05T18:49:18.981Z,97905.56
2023-01-05T18:51:45.476Z,97916.06
2023-01-05T18:54:12.569Z,97922.09
2023-01-05T18:56:39.247Z,97923.09
2023-01-05T18:59:05.792Z,97917.38
2023-01-05T19:01:32.260Z,97926.88
2023-01-05T19:03:58.741Z,97920.00
2023-01-05T19:06:25.865Z,97932.03
2023-01-05T19:08:52.371Z,97929.91
2023-01-05T19:11:20.900Z,97934.19
2023-01-05T19:13:49.264Z,97933.38
2023-01-05T19:16:17.304Z,97930.38
2023-01-05T19:18:47.877Z,97940.94
2023-01-05T19:21:14.368Z,97949.72
2023-01-05T19:23:40.788Z,97936.44
2023-01-05T19:26:07.404Z,97942.09
2023-01-05T19:28:38.560Z,97940.09
2023-01-05T19:31:09.023Z,97944.69
2023-01-05T19:33:35.947Z,97950.75
2023-01-05T19:36:03.771Z,97952.63
2023-01-05T19:38:31.131Z,97948.09
2023-01-05T19:41:09.074Z,97959.75
2023-01-05T19:43:36.952Z,97961.44
2023-01-05T19:46:06.231Z,97955.47
2023-01-05T19:48:36.965Z,97968.78
2023-01-05T19:51:05.124Z,97977.25
2023-01-05T19:53:32.164Z,97973.56
2023-01-05T19:56:03.377Z,97975.28
2023-01-05T19:58:29.876Z,97985.44
2023-01-05T20:00:58.037Z,97987.28
2023-01-05T20:03:24.509Z,97990.22
2023-01-05T20:05:50.938Z,97987.41
2023-01-05T20:08:17.347Z,97994.91
2023-01-05T20:10:43.774Z,98001.44
2023-01-05T20:13:10.252Z,97996.31
2023-01-05T20:15:36.685Z,98010.03
2023-01-05T20:18:03.144Z,98002.06
2023-01-05T20:20:29.581Z,98005.00
2023-01-05T20:22:56.009Z,98002.31
2023-01-05T20:25:22.465Z,98011.97
2023-01-05T20:27:49.002Z,98013.06
2023-01-05T20:30:15.445Z,98016.94
2023-01-05T20:32:41.918Z,98024.03
2023-01-05T20:35:11.293Z,98023.91
2023-01-05T20:37:37.723Z,98022.69
2023-01-05T20:40:04.552Z,98006.19
2023-01-05T20:42:31.259Z,98023.75
2023-01-05T20:44:58.040Z,98027.88
2023-01-05T20:47:24.450Z,98028.78
2023-01-05T20:49:51.024Z,98035.41
2023-01-05T20:52:17.747Z,98044.69
2023-01-05T20:54:44.266Z,98042.53
2023-01-05T20:57:10.864Z,98038.88
2023-01-05T20:59:41.270Z,98041.59
2023-01-05T21:02:18.691Z,98050.16
2023-01-05T21:04:49.318Z,98047.66
2023-01-05T21:07:15.782Z,98053.25
2023-01-05T21:09:42.541Z,98063.94
2023-01-05T21:12:09.015Z,98060.34
2023-01-05T21:14:35.570Z,98053.50
2023-01-05T21:17:02.136Z,98055.28
2023-01-05T21:19:28.563Z,98062.09
2023-01-05T21:21:56.242Z,98065.06
2023-01-05T21:24:22.923Z,98066.75
2023-01-05T21:26:49.752Z,98073.19
2023-01-05T21:29:16.736Z,98068.50
2023-01-05T21:31:43.278Z,98072.72
2023-01-05T21:34:11.576Z,98071.69
2023-01-05T21:36:41.332Z,98076.16
2023-01-05T21:39:08.547Z,98069.53
2023-01-05T21:41:54.686Z,98074.31
2023-01-05T21:44:21.459Z,98074.25
2023-01-05T21:46:48.911Z,98071.56
2023-01-05T21:49:15.972Z,98079.63
2023-01-05T21:52:01.127Z,98080.53
2023-01-05T21:54:46.392Z,98082.28
2023-01-05T21:57:13.001Z,98083.16
2023-01-05T21:59:39.839Z,98078.66
2023-01-05T22:02:06.534Z,98072.19
2023-01-05T22:04:33.011Z,98090.34
2023-01-05T22:06:59.457Z,98091.75
2023-01-05T22:09:25.996Z,98094.81
2023-01-05T22:11:52.613Z,98096.53
2023-01-05T22:14:19.122Z,98098.69
2023-01-05T22:16:45.552Z,98096.25
2023-01-05T22:19:12.125Z,98102.69
2023-01-05T22:21:38.663Z,98102.69
2023-01-05T22:24:05.852Z,98102.53
2023-01-05T22:26:32.371Z,98097.59
2023-01-05T22:28:58.946Z,98097.31
2023-01-05T22:31:27.221Z,98088.66
2023-01-05T22:33:54.898Z,98096.06
2023-01-05T22:36:22.157Z,98111.47
2023-01-05T22:38:49.514Z,98109.13
2023-01-05T22:41:19.087Z,98113.09
2023-01-05T22:43:46.148Z,98091.13
2023-01-05T22:46:15.194Z,98100.41
2023-01-05T22:48:43.321Z,98103.72
2023-01-05T22:51:12.025Z,98100.06
2023-01-05T22:53:39.013Z,98098.59
2023-01-05T22:56:05.931Z,98104.81
2023-01-05T22:58:32.356Z,98100.06
2023-01-05T23:01:11.188Z,98105.66
2023-01-05T23:03:37.895Z,98112.16
2023-01-05T23:06:04.792Z,98110.50
2023-01-05T23:08:31.823Z,98111.31
2023-01-05T23:11:09.170Z,98118.56
2023-01-05T23:13:35.732Z,98119.78
2023-01-05T23:16:02.492Z,98113.19
2023-01-05T23:18:28.937Z,98111.22
2023-01-05T23:20:56.707Z,98107.94
2023-01-05T23:23:23.356Z,98109.25
2023-01-05T23:25:50.455Z,98105.25
2023-01-05T23:28:18.106Z,98112.34
2023-01-05T23:30:49.337Z,98101.00
2023-01-05T23:33:16.534Z,98107.47
2023-01-05T23:35:43.204Z,98105.03
2023-01-05T23:38:10.216Z,98110.41
2023-01-05T23:40:43.737Z,98113.09
2023-01-05T23:43:14.012Z,98119.16
2023-01-05T23:45:43.036Z,98121.38
2023-01-05T23:48:10.139Z,98121.53
2023-01-05T23:50:36.601Z,98127.25
2023-01-05T23:53:03.632Z,98122.84
2023-01-05T23:55:30.151Z,98134.06
2023-01-05T23:57:56.617Z,98131.03
